createdAt,value
2023-05-14T00:03:09.203Z,14.18
2023-05-14T00:10:11.625Z,15.80
2023-05-14T00:17:13.609Z,11.98
2023-05-14T00:24:15.645Z,17.17
2023-05-14T00:31:17.666Z,12.82
2023-05-14T00:38:19.764Z,19.13
2023-05-14T00:45:22.148Z,14.38
2023-05-14T00:52:24.497Z,12.32
2023-05-14T00:59:26.615Z,12.40
2023-05-14T01:06:40.866Z,17.38
2023-05-14T01:14:07.534Z,17.17
2023-05-14T01:21:36.365Z,12.52
2023-05-14T01:28:38.878Z,12.23
2023-05-14T01:35:41.615Z,11.68
2023-05-14T01:42:44.389Z,11.23
2023-05-14T01:49:46.328Z,13.18
2023-05-14T01:56:48.250Z,14.02
2023-05-14T02:03:50.219Z,13.35
2023-05-14T02:10:52.192Z,20.25
2023-05-14T02:17:54.195Z,10.50
2023-05-14T02:24:56.355Z,14.55
2023-05-14T02:31:58.492Z,15.05
2023-05-14T02:39:01.418Z,13.13
2023-05-14T02:46:04.053Z,13.10
2023-05-14T02:53:06.199Z,12.20
2023-05-14T03:00:09.476Z,16.77
2023-05-14T03:07:11.690Z,17.80
2023-05-14T03:14:13.520Z,15.70
2023-05-14T03:21:15.481Z,14.98
2023-05-14T03:28:17.290Z,15.07
2023-05-14T03:35:19.530Z,17.27
2023-05-14T03:42:21.466Z,12.27
2023-05-14T03:49:23.424Z,15.18
2023-05-14T03:56:26.366Z,14.68
2023-05-14T04:03:28.723Z,17.42
2023-05-14T04:10:32.422Z,15.23
2023-05-14T04:17:35.091Z,13.95
2023-05-14T04:24:37.246Z,12.57
2023-05-14T04:31:39.902Z,18.67
2023-05-14T04:38:41.906Z,17.52
2023-05-14T04:45:43.889Z,14.55
2023-05-14T04:52:45.987Z,15.65
2023-05-14T04:59:47.954Z,14.13
2023-05-14T05:06:51.021Z,12.32
2023-05-14T05:13:52.930Z,14.48
2023-05-14T05:20:54.993Z,12.38
2023-05-14T05:27:57.146Z,13.77
2023-05-14T05:34:59.097Z,12.20
2023-05-14T05:42:02.604Z,9.95
2023-05-14T05:49:04.751Z,10.45
2023-05-14T05:56:07.033Z,15.63
2023-05-14T06:03:08.994Z,7.93
2023-05-14T06:10:11.160Z,16.35
2023-05-14T06:17:13.153Z,10.55
2023-05-14T06:24:16.764Z,7.65
2023-05-14T06:31:19.356Z,6.28
2023-05-14T06:38:21.566Z,7.63
2023-05-14T06:45:23.529Z,6.07
2023-05-14T06:52:26.054Z,6.85
2023-05-14T06:59:28.128Z,9.15
2023-05-14T07:06:30.097Z,6.30
2023-05-14T07:13:32.104Z,5.15
2023-05-14T07:20:34.074Z,2.80
2023-05-14T07:27:36.275Z,7.38
2023-05-14T07:34:38.377Z,3.92
2023-05-14T07:41:40.281Z,4.78
2023-05-14T07:48:42.351Z,4.25
2023-05-14T07:55:47.126Z,6.10
2023-05-14T08:02:49.644Z,4.40
2023-05-14T08:09:51.741Z,3.25
2023-05-14T08:16:53.808Z,2.28
2023-05-14T08:23:55.912Z,3.20
2023-05-14T08:30:57.951Z,2.75
2023-05-14T08:38:00.486Z,2.38
2023-05-14T08:45:03.870Z,2.40
2023-05-14T08:52:06.216Z,4.95
2023-05-14T08:59:08.166Z,3.53
2023-05-14T09:06:11.550Z,5.28
2023-05-14T09:13:13.677Z,2.45
2023-05-14T09:20:16.057Z,2.15
2023-05-14T09:27:21.641Z,6.05
2023-05-14T09:34:28.725Z,3.83
2023-05-14T09:41:30.771Z,2.92
2023-05-14T09:48:32.656Z,1.83
2023-05-14T09:55:37.094Z,4.93
2023-05-14T10:02:41.688Z,3.45
2023-05-14T10:09:44.632Z,2.47
2023-05-14T10:16:51.755Z,5.07
2023-05-14T10:23:53.983Z,2.42
2023-05-14T10:30:56.071Z,3.65
2023-05-14T10:37:58.078Z,1.67
2023-05-14T10:45:07.620Z,2.08
2023-05-14T10:52:09.834Z,2.25
2023-05-14T10:59:12.505Z,4.15
2023-05-14T11:06:16.139Z,2.85
2023-05-14T11:13:20.325Z,4.53
2023-05-14T11:20:25.914Z,8.85
2023-05-14T11:27:28.501Z,3.63
2023-05-14T11:34:30.560Z,4.20
2023-05-14T11:41:32.534Z,4.28
2023-05-14T11:48:34.477Z,1.77
2023-05-14T11:55:36.690Z,1.77
2023-05-14T12:02:38.720Z,7.93
2023-05-14T12:09:45.135Z,1.80
2023-05-14T12:16:49.998Z,2.00
2023-05-14T12:23:59.334Z,3.03
2023-05-14T12:31:01.795Z,3.15
2023-05-14T12:38:04.082Z,3.05
2023-05-14T12:45:08.840Z,2.20
2023-05-14T12:59:15.884Z,3.78
2023-05-14T13:06:17.963Z,2.58
2023-05-14T13:13:20.145Z,1.75
2023-05-14T13:20:23.866Z,2.60
2023-05-14T13:27:26.375Z,2.22
2023-05-14T13:34:28.312Z,3.78
2023-05-14T13:41:30.519Z,1.60
2023-05-14T13:48:33.002Z,3.00
2023-05-14T13:55:34.955Z,2.03
2023-05-14T14:02:36.977Z,2.50
2023-05-14T14:09:38.850Z,2.97
2023-05-14T14:16:41.127Z,1.50
2023-05-14T14:23:43.208Z,2.42
2023-05-14T14:30:45.309Z,5.35
2023-05-14T14:37:51.199Z,1.48
2023-05-14T14:44:53.266Z,1.80
2023-05-14T14:51:55.290Z,2.25
2023-05-14T14:58:57.132Z,1.60
2023-05-14T15:05:59.279Z,1.75
2023-05-14T15:13:01.371Z,2.63
2023-05-14T15:20:03.500Z,1.45
2023-05-14T15:27:05.653Z,3.15
2023-05-14T15:34:07.631Z,1.98
2023-05-14T15:41:09.613Z,4.47
2023-05-14T15:48:11.678Z,2.50
2023-05-14T15:55:14.245Z,7.65
2023-05-14T16:02:17.032Z,3.58
2023-05-14T16:09:19.034Z,1.70
2023-05-14T16:16:23.010Z,2.85
2023-05-14T16:23:25.214Z,2.55
2023-05-14T16:30:27.858Z,2.47
2023-05-14T16:37:30.051Z,5.80
2023-05-14T16:44:32.188Z,1.80
2023-05-14T16:51:34.153Z,4.70
2023-05-14T16:58:36.089Z,2.83
2023-05-14T17:05:39.975Z,4.43
2023-05-14T17:12:42.095Z,4.53
2023-05-14T17:19:44.214Z,1.63
2023-05-14T17:26:46.274Z,3.03
2023-05-14T17:33:48.248Z,6.43
2023-05-14T17:40:50.259Z,5.60
2023-05-14T17:47:52.422Z,2.67
2023-05-14T17:54:54.738Z,2.17
2023-05-14T18:01:57.142Z,3.17
2023-05-14T18:08:59.739Z,4.82
2023-05-14T18:16:02.330Z,6.25
2023-05-14T18:23:04.869Z,3.22
2023-05-14T18:30:08.385Z,7.70
2023-05-14T18:37:10.912Z,6.30
2023-05-14T18:44:16.800Z,4.63
2023-05-14T18:51:19.425Z,3.22
2023-05-14T18:58:21.925Z,10.88
2023-05-14T19:05:24.599Z,4.18
2023-05-14T19:12:27.108Z,9.32
2023-05-14T19:19:29.637Z,6.20
2023-05-14T19:26:31.947Z,5.93
2023-05-14T19:33:34.249Z,8.68
2023-05-14T19:40:36.948Z,7.15
2023-05-14T19:47:39.524Z,5.30
2023-05-14T19:54:41.991Z,8.10
2023-05-14T20:01:44.447Z,5.80
2023-05-14T20:08:46.833Z,7.22
2023-05-14T20:15:48.851Z,7.03
2023-05-14T20:22:50.955Z,4.85
2023-05-14T20:29:54.344Z,4.70
2023-05-14T20:36:57.842Z,6.65
2023-05-14T20:43:59.963Z,6.70
2023-05-14T20:51:02.043Z,6.47
2023-05-14T20:58:06.804Z,5.97
2023-05-14T21:05:09.021Z,7.80
2023-05-14T21:12:11.211Z,7.38
2023-05-14T21:19:14.780Z,8.93
2023-05-14T21:26:17.397Z,10.52
2023-05-14T21:33:19.497Z,5.70
2023-05-14T21:40:21.446Z,7.85
2023-05-14T21:47:23.413Z,14.10
2023-05-14T21:54:25.393Z,5.22
2023-05-14T22:01:27.481Z,5.35
2023-05-14T22:08:30.995Z,6.97
2023-05-14T22:15:33.127Z,4.50
2023-05-14T22:22:35.035Z,6.78
2023-05-14T22:29:38.260Z,8.30
2023-05-14T22:36:40.462Z,10.10
2023-05-14T22:43:42.463Z,10.18
2023-05-14T22:50:44.634Z,7.47
2023-05-14T22:57:46.571Z,4.95
2023-05-14T23:04:48.669Z,8.20
2023-05-14T23:11:50.673Z,7.60
2023-05-14T23:18:53.045Z,6.53
2023-05-14T23:25:56.268Z,5.28
2023-05-14T23:32:58.260Z,10.35
2023-05-14T23:40:00.272Z,5.15
2023-05-14T23:47:06.013Z,5.63
2023-05-14T23:54:07.862Z,8.70
